ZSBEE FACT-FACT
Flight info
| Callsign | ZSBEE |
|---|---|
| Flight time | 0h 2m |
| Altitude | 1500 |
| Route | VFR |
| Aircraft | C172/L-VGD/A |
Departure
| Time | 2026-05-03 20:15 |
|---|---|
| Airport | Cape Town International Airport (FACT) |
Arrival
| Time | 2026-05-03 20:17 |
|---|---|
| Airport | Cape Town International Airport (FACT) |
| Time | Latitude | Longitude | Altitude | Speed | Heading |
|---|---|---|---|---|---|
| 2026-05-03 20:15 | -33.95362 | 18.60863 | 736 ft | 101 kts | 107° |
| 2026-05-03 20:15 | -33.95688 | 18.61351 | 781 ft | 108 kts | 139° |
| 2026-05-03 20:15 | -33.96357 | 18.61767 | 831 ft | 112 kts | 157° |
| 2026-05-03 20:15 | -33.97102 | 18.62117 | 830 ft | 116 kts | 160° |
| 2026-05-03 20:16 | -33.97854 | 18.62438 | 856 ft | 112 kts | 161° |
| 2026-05-03 20:16 | -33.98641 | 18.62686 | 773 ft | 129 kts | 169° |
| 2026-05-03 20:16 | -33.99519 | 18.62840 | 890 ft | 120 kts | 186° |
| 2026-05-03 20:16 | -34.00115 | 18.62301 | 865 ft | 107 kts | 251° |
| 2026-05-03 20:17 | -34.00049 | 18.61532 | 787 ft | 97 kts | 310° |
| 2026-05-03 20:17 | -33.99476 | 18.61120 | 520 ft | 85 kts | 348° |
| 2026-05-03 20:17 | -33.99008 | 18.60969 | 250 ft | 58 kts | 345° |
| 2026-05-03 20:17 | -33.98654 | 18.60849 | 171 ft | 49 kts | 345° |
| 2026-05-03 20:18 | -33.98349 | 18.60753 | 150 ft | 39 kts | 345° |
| 2026-05-03 20:18 | -33.98046 | 18.60654 | 169 ft | 52 kts | 344° |
| 2026-05-03 20:18 | -33.97622 | 18.60504 | 221 ft | 78 kts | 344° |
| 2026-05-03 20:18 | -33.97071 | 18.60314 | 467 ft | 78 kts | 348° |
| 2026-05-03 20:19 | -33.96634 | 18.60621 | 567 ft | 100 kts | 83° |
| 2026-05-03 20:19 | -33.97156 | 18.61156 | 665 ft | 112 kts | 153° |
| 2026-05-03 20:19 | -33.97850 | 18.61543 | 690 ft | 107 kts | 149° |
| 2026-05-03 20:19 | -33.98567 | 18.61737 | 752 ft | 107 kts | 167° |
| 2026-05-03 20:20 | -33.99248 | 18.61672 | 922 ft | 90 kts | 242° |
| 2026-05-03 20:20 | -33.99181 | 18.60999 | 1036 ft | 92 kts | 297° |
| 2026-05-03 20:20 | -33.98951 | 18.60220 | 1118 ft | 101 kts | 298° |
| 2026-05-03 20:20 | -33.98715 | 18.59414 | 1217 ft | 106 kts | 295° |
| 2026-05-03 20:21 | -33.98467 | 18.58568 | 1293 ft | 107 kts | 296° |
| 2026-05-03 20:21 | -33.98208 | 18.57754 | 1446 ft | 101 kts | 298° |
| 2026-05-03 20:21 | -33.97882 | 18.56970 | 1442 ft | 109 kts | 301° |
| 2026-05-03 20:21 | -33.97671 | 18.56107 | 1511 ft | 116 kts | 272° |
| 2026-05-03 20:22 | -33.98142 | 18.55200 | 1387 ft | 138 kts | 234° |
| 2026-05-03 20:22 | -33.98815 | 18.54385 | 1325 ft | 136 kts | 234° |
| 2026-05-03 20:22 | -33.99484 | 18.53562 | 1330 ft | 132 kts | 233° |
| 2026-05-03 20:22 | -34.00162 | 18.52791 | 1283 ft | 138 kts | 231° |
| 2026-05-03 20:23 | -34.00949 | 18.52132 | 1275 ft | 145 kts | 209° |
| 2026-05-03 20:23 | -34.01982 | 18.51935 | 1196 ft | 151 kts | 179° |
| 2026-05-03 20:23 | -34.02989 | 18.52195 | 1205 ft | 150 kts | 156° |
| 2026-05-03 20:23 | -34.04003 | 18.52503 | 1093 ft | 153 kts | 179° |
| 2026-05-03 20:24 | -34.05054 | 18.52624 | 1108 ft | 148 kts | 170° |
| 2026-05-03 20:24 | -34.06074 | 18.52908 | 1051 ft | 152 kts | 169° |
| 2026-05-03 20:24 | -34.07081 | 18.53149 | 1116 ft | 148 kts | 170° |
| 2026-05-03 20:24 | -34.08012 | 18.53388 | 974 ft | 133 kts | 167° |
| 2026-05-03 20:25 | -34.08788 | 18.53899 | 697 ft | 121 kts | 129° |
| 2026-05-03 20:25 | -34.08943 | 18.54827 | 683 ft | 120 kts | 73° |
| 2026-05-03 20:25 | -34.08791 | 18.55869 | 683 ft | 125 kts | 73° |
| 2026-05-03 20:25 | -34.08607 | 18.56868 | 729 ft | 122 kts | 70° |
| 2026-05-03 20:26 | -34.08438 | 18.57882 | 677 ft | 130 kts | 73° |
| 2026-05-03 20:26 | -34.08235 | 18.58891 | 820 ft | 123 kts | 69° |
| 2026-05-03 20:26 | -34.08065 | 18.59891 | 904 ft | 123 kts | 73° |
| 2026-05-03 20:26 | -34.07891 | 18.60880 | 907 ft | 129 kts | 72° |
| 2026-05-03 20:27 | -34.07730 | 18.61969 | 912 ft | 129 kts | 75° |
| 2026-05-03 20:27 | -34.07653 | 18.63059 | 917 ft | 132 kts | 82° |
| 2026-05-03 20:27 | -34.07645 | 18.64197 | 856 ft | 134 kts | 81° |
| 2026-05-03 20:27 | -34.07591 | 18.65325 | 827 ft | 137 kts | 79° |
| 2026-05-03 20:28 | -34.07495 | 18.66388 | 983 ft | 127 kts | 75° |
| 2026-05-03 20:28 | -34.07356 | 18.67450 | 1026 ft | 128 kts | 75° |
| 2026-05-03 20:28 | -34.07431 | 18.68593 | 907 ft | 140 kts | 92° |
| 2026-05-03 20:28 | -34.07564 | 18.69721 | 946 ft | 135 kts | 88° |
| 2026-05-03 20:29 | -34.07628 | 18.70827 | 973 ft | 132 kts | 84° |
| 2026-05-03 20:29 | -34.07646 | 18.71919 | 981 ft | 130 kts | 83° |
| 2026-05-03 20:29 | -34.07644 | 18.72997 | 998 ft | 128 kts | 79° |
| 2026-05-03 20:29 | -34.07563 | 18.74048 | 1017 ft | 122 kts | 66° |
| 2026-05-03 20:30 | -34.07134 | 18.74842 | 1037 ft | 110 kts | 34° |
| 2026-05-03 20:30 | -34.06527 | 18.75420 | 1087 ft | 114 kts | 30° |
| 2026-05-03 20:30 | -34.05877 | 18.75963 | 1133 ft | 114 kts | 34° |
| 2026-05-03 20:30 | -34.05590 | 18.76889 | 1175 ft | 129 kts | 83° |
| 2026-05-03 20:31 | -34.05597 | 18.77964 | 1193 ft | 129 kts | 81° |
| 2026-05-03 20:31 | -34.05584 | 18.78680 | 1217 ft | 130 kts | 80° |
| 2026-05-03 20:31 | -34.05576 | 18.79739 | 1358 ft | 125 kts | 79° |
| 2026-05-03 20:31 | -34.05470 | 18.80721 | 1504 ft | 109 kts | 48° |
| 2026-05-03 20:32 | -34.04876 | 18.81136 | 1641 ft | 98 kts | 354° |
| 2026-05-03 20:32 | -34.04187 | 18.81007 | 1761 ft | 101 kts | 345° |
| 2026-05-03 20:32 | -34.03507 | 18.80797 | 1903 ft | 101 kts | 341° |
| 2026-05-03 20:32 | -34.02847 | 18.80477 | 1892 ft | 110 kts | 332° |
| 2026-05-03 20:33 | -34.02226 | 18.80036 | 1946 ft | 110 kts | 329° |
| 2026-05-03 20:33 | -34.01609 | 18.79495 | 1918 ft | 109 kts | 308° |
| 2026-05-03 20:33 | -34.01099 | 18.78765 | 1726 ft | 115 kts | 321° |
| 2026-05-03 20:33 | -34.00423 | 18.78308 | 1655 ft | 114 kts | 334° |
| 2026-05-03 20:34 | -33.99701 | 18.77920 | 1454 ft | 121 kts | 336° |
| 2026-05-03 20:34 | -33.98959 | 18.77530 | 1301 ft | 121 kts | 337° |
| 2026-05-03 20:34 | -33.98196 | 18.77184 | 1344 ft | 113 kts | 341° |
| 2026-05-03 20:34 | -33.97439 | 18.76847 | 1131 ft | 113 kts | 341° |
| 2026-05-03 20:35 | -33.96796 | 18.76329 | 1087 ft | 116 kts | 301° |
| 2026-05-03 20:35 | -33.96568 | 18.75355 | 1036 ft | 122 kts | 289° |
| 2026-05-03 20:35 | -33.96395 | 18.74351 | 1011 ft | 123 kts | 287° |
| 2026-05-03 20:35 | -33.96230 | 18.73355 | 1002 ft | 122 kts | 286° |
| 2026-05-03 20:36 | -33.96052 | 18.72363 | 1001 ft | 122 kts | 291° |
| 2026-05-03 20:36 | -33.95871 | 18.71384 | 1012 ft | 122 kts | 290° |
| 2026-05-03 20:36 | -33.95675 | 18.70403 | 999 ft | 121 kts | 288° |
| 2026-05-03 20:36 | -33.95499 | 18.69388 | 931 ft | 125 kts | 288° |
| 2026-05-03 20:37 | -33.95328 | 18.68358 | 883 ft | 127 kts | 289° |
| 2026-05-03 20:37 | -33.95174 | 18.67323 | 907 ft | 128 kts | 283° |
| 2026-05-03 20:37 | -33.95119 | 18.66261 | 916 ft | 125 kts | 279° |
| 2026-05-03 20:37 | -33.95086 | 18.65493 | 937 ft | 122 kts | 278° |
| 2026-05-03 20:38 | -33.95078 | 18.64506 | 895 ft | 128 kts | 275° |
| 2026-05-03 20:38 | -33.95122 | 18.63421 | 886 ft | 130 kts | 265° |
| 2026-05-03 20:38 | -33.95717 | 18.62595 | 844 ft | 147 kts | 206° |
| 2026-05-03 20:38 | -33.96732 | 18.62487 | 848 ft | 146 kts | 181° |
| 2026-05-03 20:39 | -33.97727 | 18.62489 | 915 ft | 140 kts | 184° |
| 2026-05-03 20:39 | -33.98701 | 18.62463 | 918 ft | 139 kts | 184° |
| 2026-05-03 20:39 | -33.99622 | 18.62423 | 890 ft | 123 kts | 186° |
| 2026-05-03 20:39 | -34.00355 | 18.62200 | 738 ft | 95 kts | 231° |
| 2026-05-03 20:40 | -34.00401 | 18.61542 | 625 ft | 78 kts | 313° |
| 2026-05-03 20:40 | -33.99941 | 18.61251 | 423 ft | 72 kts | 346° |
| 2026-05-03 20:40 | -33.99492 | 18.61108 | 375 ft | 61 kts | 347° |
| 2026-05-03 20:40 | -33.99058 | 18.60978 | 272 ft | 69 kts | 345° |
| 2026-05-03 20:41 | -33.98584 | 18.60828 | 181 ft | 71 kts | 345° |
| 2026-05-03 20:41 | -33.98119 | 18.60675 | 153 ft | 66 kts | 346° |
| 2026-05-03 20:41 | -33.97745 | 18.60564 | 153 ft | 43 kts | 346° |
| 2026-05-03 20:41 | -33.97505 | 18.60485 | 149 ft | 31 kts | 345° |
| 2026-05-03 20:42 | -33.97295 | 18.60417 | 151 ft | 31 kts | 344° |
| 2026-05-03 20:42 | -33.97128 | 18.60305 | 157 ft | 24 kts | 304° |
| 2026-05-03 20:42 | -33.97085 | 18.60147 | 161 ft | 17 kts | 284° |
| 2026-05-03 20:42 | -33.97065 | 18.60057 | 162 ft | 13 kts | 283° |
| 2026-05-03 20:43 | -33.97091 | 18.59968 | 162 ft | 11 kts | 200° |
| 2026-05-03 20:43 | -33.97165 | 18.59981 | 162 ft | 10 kts | 171° |
| 2026-05-03 20:43 | -33.97231 | 18.59997 | 162 ft | 9 kts | 165° |
| 2026-05-03 20:43 | -33.97289 | 18.60014 | 162 ft | 8 kts | 166° |
| 2026-05-03 20:44 | -33.97346 | 18.60031 | 162 ft | 10 kts | 166° |
| 2026-05-03 20:44 | -33.97425 | 18.60057 | 162 ft | 14 kts | 163° |
| 2026-05-03 20:44 | -33.97532 | 18.60104 | 162 ft | 17 kts | 152° |
| 2026-05-03 20:44 | -33.97637 | 18.60159 | 162 ft | 16 kts | 162° |
| 2026-05-03 20:45 | -33.97735 | 18.60184 | 162 ft | 13 kts | 225° |
| 2026-05-03 20:45 | -33.97763 | 18.60092 | 162 ft | 10 kts | 252° |
| 2026-05-03 20:45 | -33.97743 | 18.60041 | 162 ft | 7 kts | 342° |
| 2026-05-03 20:45 | -33.97704 | 18.60025 | 162 ft | 5 kts | 340° |
| 2026-05-03 20:46 | -33.97673 | 18.60008 | 162 ft | 5 kts | 308° |